Time;durP1;ratioP1;P1;durP2;ratioP2;P2;SDS_P1;SDS_P2;PMS_P1;PMS_P2;Temp;Humidity;BMP_temperature;BMP_pressure;BME280_temperature;BME280_humidity;BME280_pressure;Samples;Min_cycle;Max_cycle;Signal;HPM_P1;HPM_P2
2024/02/02 00:01:53;;;;;;;;;14.00;13.00;;;;;9.38;100.00;99475.13;6164334;28;96369;-58
2024/02/02 00:04:56;;;;;;;;;17.00;13.20;;;;;9.32;100.00;99478.66;6164374;28;96569;-57
2024/02/02 00:08:01;;;;;;;;;13.80;12.40;;;;;9.20;100.00;99474.84;6164656;28;96602;-58
2024/02/02 00:11:05;;;;;;;;;15.00;13.75;;;;;9.12;100.00;99475.84;6164420;28;96605;-58
2024/02/02 00:14:08;;;;;;;;;14.00;14.00;;;;;9.14;100.00;99470.25;6147325;28;96559;-58
2024/02/02 00:17:11;;;;;;;;;12.40;11.00;;;;;9.20;100.00;99469.47;6146825;28;96453;-58
2024/02/02 00:20:15;;;;;;;;;15.00;14.00;;;;;9.17;100.00;99477.94;6164462;28;96733;-57
2024/02/02 00:23:19;;;;;;;;;10.20;10.00;;;;;9.14;100.00;99475.63;6146670;28;98466;-58
2024/02/02 00:26:22;;;;;;;;;16.00;14.00;;;;;9.11;100.00;99490.31;6164225;28;96316;-58
2024/02/02 00:29:25;;;;;;;;;11.60;9.60;;;;;9.19;100.00;99492.00;6164875;28;96795;-57
2024/02/02 00:32:28;;;;;;;;;11.00;11.00;;;;;9.14;100.00;99497.97;6164371;28;96490;-58
2024/02/02 00:35:32;;;;;;;;;13.80;11.20;;;;;9.25;100.00;99493.91;6164761;28;96963;-58
2024/02/02 00:38:36;;;;;;;;;13.00;12.00;;;;;9.18;100.00;99490.38;6164300;28;96400;-58
2024/02/02 00:41:39;;;;;;;;;9.20;9.00;;;;;9.26;100.00;99492.88;6164371;28;96261;-58
2024/02/02 00:44:43;;;;;;;;;11.00;9.60;;;;;9.26;100.00;99494.75;6164312;28;96359;-57
2024/02/02 00:47:46;;;;;;;;;12.00;10.00;;;;;9.28;100.00;99484.63;6164189;28;96507;-57
2024/02/02 00:50:49;;;;;;;;;13.00;11.00;;;;;9.21;100.00;99484.59;6165290;28;96453;-55
2024/02/02 00:53:53;;;;;;;;;10.00;10.00;;;;;9.14;100.00;99476.47;6164914;28;96397;-55
2024/02/02 00:56:57;;;;;;;;;6.60;6.60;;;;;9.29;100.00;99492.47;6165945;28;96347;-54
2024/02/02 01:00:00;;;;;;;;;9.00;9.00;;;;;9.27;100.00;99494.56;6166075;28;96342;-54
2024/02/02 01:03:06;;;;;;;;;9.60;8.00;;;;;9.29;100.00;99487.09;6161755;28;98456;-55
2024/02/02 01:06:09;;;;;;;;;10.00;10.00;;;;;9.29;100.00;99503.25;6190285;28;96551;-55
2024/02/02 01:09:14;;;;;;;;;9.00;8.00;;;;;9.18;100.00;99490.38;6190725;28;97061;-55
2024/02/02 01:12:17;;;;;;;;;9.00;8.00;;;;;9.17;100.00;99504.84;6189669;28;96575;-54
2024/02/02 01:15:21;;;;;;;;;10.00;10.00;;;;;9.19;100.00;99500.09;6190733;28;96401;-55
2024/02/02 01:18:24;;;;;;;;;9.00;9.00;;;;;9.10;100.00;99495.88;6190621;28;96478;-55
2024/02/02 01:21:27;;;;;;;;;9.20;8.20;;;;;9.12;100.00;99505.44;6190096;28;96323;-54
2024/02/02 01:24:32;;;;;;;;;9.50;9.00;;;;;9.09;100.00;99505.81;6190027;28;96291;-54
2024/02/02 01:27:36;;;;;;;;;13.00;12.00;;;;;9.21;100.00;99500.72;6189794;28;96345;-54
2024/02/02 01:30:39;;;;;;;;;10.50;10.00;;;;;9.21;100.00;99497.19;6190355;28;96352;-54
2024/02/02 01:33:42;;;;;;;;;10.00;9.00;;;;;9.20;100.00;99508.97;6180936;28;96451;-55
2024/02/02 01:36:45;;;;;;;;;8.20;7.00;;;;;9.12;100.00;99505.44;6172092;28;96457;-54
2024/02/02 01:39:50;;;;;;;;;10.00;9.00;;;;;9.09;100.00;99494.22;6190127;28;96351;-55
2024/02/02 01:42:53;;;;;;;;;8.00;8.00;;;;;9.06;100.00;99500.00;6189532;28;97045;-54
2024/02/02 01:45:56;;;;;;;;;11.25;9.75;;;;;9.08;100.00;99497.97;6190665;28;96325;-55
2024/02/02 01:48:59;;;;;;;;;10.00;9.00;;;;;9.01;100.00;99494.38;6189413;28;96367;-54
2024/02/02 01:52:04;;;;;;;;;12.20;11.40;;;;;9.06;100.00;99495.47;6189869;28;96377;-54
2024/02/02 01:55:09;;;;;;;;;10.80;8.40;;;;;8.90;100.00;99470.72;6189014;28;96846;-54
2024/02/02 01:58:15;;;;;;;;;10.80;9.80;;;;;8.99;100.00;99494.56;6189875;28;96404;-54
2024/02/02 02:01:18;;;;;;;;;15.00;11.60;;;;;8.98;100.00;99492.94;6188620;28;96425;-58
2024/02/02 02:04:35;;;;;;;;;10.60;9.00;;;;;9.03;100.00;99486.97;6361310;27;95729;-59
2024/02/02 02:07:42;;;;;;;;;7.80;6.80;;;;;9.01;100.00;99491.69;6312952;27;96227;-59
2024/02/02 02:10:46;;;;;;;;;14.00;12.20;;;;;9.03;100.00;99484.28;6309671;27;97510;-59
2024/02/02 02:13:49;;;;;;;;;12.00;10.00;;;;;9.05;100.00;99492.97;6303413;27;96444;-60
2024/02/02 02:16:52;;;;;;;;;12.00;9.00;;;;;8.96;100.00;99486.06;6282858;27;97152;-59
2024/02/02 02:19:58;;;;;;;;;11.40;10.00;;;;;8.99;100.00;99488.38;6293788;27;96733;-59
2024/02/02 02:23:03;;;;;;;;;12.00;11.00;;;;;8.94;100.00;99494.31;6308993;27;96616;-60
2024/02/02 02:26:06;;;;;;;;;11.80;9.00;;;;;8.80;100.00;99471.06;6305884;27;96313;-60
2024/02/02 02:29:09;;;;;;;;;11.00;9.00;;;;;9.00;100.00;99493.56;6283406;27;96657;-59
2024/02/02 02:32:12;;;;;;;;;10.00;8.00;;;;;9.00;100.00;99498.09;6286894;27;96253;-57
2024/02/02 02:35:15;;;;;;;;;10.60;9.40;;;;;8.97;100.00;99498.50;6283776;27;96358;-59
2024/02/02 02:38:20;;;;;;;;;10.40;9.00;;;;;8.97;100.00;99495.81;6303816;27;96358;-60
2024/02/02 02:41:23;;;;;;;;;9.20;8.20;;;;;8.99;100.00;99491.88;6307924;27;97110;-57
2024/02/02 02:44:26;;;;;;;;;10.40;9.00;;;;;9.01;100.00;99499.75;6308571;27;96471;-59
2024/02/02 02:47:29;;;;;;;;;8.40;8.40;;;;;8.96;100.00;99499.53;6309206;27;96517;-60
2024/02/02 02:50:33;;;;;;;;;11.00;9.50;;;;;8.95;100.00;99496.00;6294198;27;97055;-59
2024/02/02 02:53:37;;;;;;;;;8.00;7.00;;;;;8.99;100.00;99504.53;6307203;27;96336;-57
2024/02/02 02:56:40;;;;;;;;;9.40;8.00;;;;;8.87;100.00;99492.63;6302181;27;97066;-57
2024/02/02 02:59:44;;;;;;;;;9.25;8.75;;;;;8.90;100.00;99500.28;6283717;27;96511;-60
2024/02/02 03:02:47;;;;;;;;;10.40;9.40;;;;;8.88;100.00;99495.13;6242886;27;96018;-59
2024/02/02 03:05:50;;;;;;;;;10.00;9.00;;;;;8.91;100.00;99500.13;6271767;27;97398;-59
2024/02/02 03:08:54;;;;;;;;;9.00;9.00;;;;;8.90;100.00;99505.69;6202969;28;96253;-59
2024/02/02 03:11:57;;;;;;;;;12.00;10.50;;;;;8.75;100.00;99502.28;6213986;28;96327;-54
2024/02/02 03:15:01;;;;;;;;;10.25;8.00;;;;;8.70;100.00;99505.53;6205905;28;96275;-54
2024/02/02 03:18:04;;;;;;;;;9.00;7.60;;;;;8.62;100.00;99490.38;6177830;28;96324;-53
2024/02/02 03:21:08;;;;;;;;;7.80;7.00;;;;;8.56;100.00;99503.75;6242459;27;96312;-52
2024/02/02 03:24:12;;;;;;;;;9.00;8.00;;;;;8.56;100.00;99501.91;6178740;28;98101;-52
2024/02/02 03:27:16;;;;;;;;;9.50;9.25;;;;;8.56;100.00;99504.59;6179258;28;96168;-52
2024/02/02 03:30:19;;;;;;;;;9.00;8.00;;;;;8.53;100.00;99507.69;6180333;28;96253;-53
2024/02/02 03:33:22;;;;;;;;;7.60;7.00;;;;;8.49;100.00;99513.63;6190514;28;96202;-52
2024/02/02 03:36:25;;;;;;;;;6.00;5.00;;;;;8.46;100.00;99514.00;6178845;28;96261;-54
2024/02/02 03:39:30;;;;;;;;;6.80;4.00;;;;;8.41;100.00;99517.25;6195810;28;96329;-52
2024/02/02 03:42:33;;;;;;;;;8.80;7.80;;;;;8.41;100.00;99528.00;6202144;27;96235;-52
2024/02/02 03:45:37;;;;;;;;;8.40;7.60;;;;;8.40;100.00;99523.69;6269006;27;97132;-52
2024/02/02 03:48:40;;;;;;;;;7.60;6.60;;;;;8.40;100.00;99523.69;6178034;28;96094;-52
2024/02/02 03:51:43;;;;;;;;;7.40;7.00;;;;;8.38;100.00;99530.25;6179075;28;96261;-52
2024/02/02 03:54:48;;;;;;;;;9.00;8.00;;;;;8.37;100.00;99532.09;6178412;28;96343;-52
2024/02/02 03:57:54;;;;;;;;;7.00;6.00;;;;;8.41;100.00;99543.28;6193380;28;96312;-52
2024/02/02 04:00:57;;;;;;;;;5.00;4.00;;;;;8.35;100.00;99527.97;6201617;28;96310;-52
2024/02/02 04:04:01;;;;;;;;;7.60;6.60;;;;;8.47;100.00;99543.38;6220687;27;96723;-52
2024/02/02 04:07:04;;;;;;;;;5.50;5.00;;;;;8.57;100.00;99540.38;6199635;27;96208;-53
2024/02/02 04:10:09;;;;;;;;;9.00;9.00;;;;;8.58;100.00;99542.88;6198964;28;96360;-53
2024/02/02 04:13:12;;;;;;;;;5.60;5.00;;;;;8.61;100.00;99544.31;6200410;27;97336;-52
2024/02/02 04:16:15;;;;;;;;;6.00;5.00;;;;;8.69;100.00;99550.41;6205320;27;96552;-54
2024/02/02 04:19:20;;;;;;;;;4.60;4.20;;;;;8.69;100.00;99555.78;6200110;27;96296;-52
2024/02/02 04:22:24;;;;;;;;;4.25;4.25;;;;;8.79;100.00;99558.16;6188444;28;96587;-57
2024/02/02 04:25:29;;;;;;;;;6.00;5.60;;;;;8.78;100.00;99564.53;6180837;28;96241;-57
2024/02/02 04:28:32;;;;;;;;;7.80;6.80;;;;;8.77;100.00;99562.88;6201358;27;96885;-57
2024/02/02 04:31:35;;;;;;;;;8.00;7.60;;;;;8.75;100.00;99556.06;6255104;27;96612;-57
2024/02/02 04:34:38;;;;;;;;;6.60;6.60;;;;;8.78;100.00;99571.78;6251880;27;96684;-57
2024/02/02 04:37:43;;;;;;;;;7.00;7.00;;;;;8.79;100.00;99571.59;6260795;27;96810;-57
2024/02/02 04:40:48;;;;;;;;;8.00;6.75;;;;;8.68;100.00;99562.19;6258994;27;96477;-57
2024/02/02 04:43:51;;;;;;;;;8.00;7.00;;;;;8.62;100.00;99554.06;6213323;27;96995;-57
2024/02/02 04:46:54;;;;;;;;;8.00;7.00;;;;;8.68;100.00;99574.78;6187387;27;97811;-57
2024/02/02 04:49:57;;;;;;;;;6.60;5.00;;;;;8.69;100.00;99587.22;6266067;27;96457;-57
2024/02/02 04:53:00;;;;;;;;;6.40;6.00;;;;;8.60;100.00;99588.38;6181204;28;96999;-57
2024/02/02 04:56:05;;;;;;;;;7.00;7.00;;;;;8.60;100.00;99583.00;6241582;27;96947;-58
2024/02/02 04:59:08;;;;;;;;;9.00;7.25;;;;;8.61;100.00;99584.63;6184578;28;96377;-58
2024/02/02 05:02:12;;;;;;;;;8.50;8.25;;;;;8.67;100.00;99600.84;6182548;28;96274;-58
2024/02/02 05:05:15;;;;;;;;;9.60;9.40;;;;;8.69;100.00;99601.50;6248417;27;96442;-58
2024/02/02 05:08:18;;;;;;;;;8.40;7.40;;;;;8.61;100.00;99590.84;6185346;28;96397;-58
2024/02/02 05:11:23;;;;;;;;;7.40;6.40;;;;;8.62;100.00;99603.28;6170858;27;96426;-58
2024/02/02 05:14:26;;;;;;;;;8.00;8.00;;;;;8.52;100.00;99601.91;6184318;28;96329;-58
2024/02/02 05:17:29;;;;;;;;;7.00;7.00;;;;;8.53;100.00;99607.13;6175965;28;97761;-58
2024/02/02 05:20:32;;;;;;;;;10.00;9.00;;;;;8.62;100.00;99605.13;6186644;27;97517;-58
2024/02/02 05:23:36;;;;;;;;;8.00;6.00;;;;;8.62;100.00;99599.75;6183369;28;96320;-58
2024/02/02 05:26:52;;;;;;;;;7.60;7.00;;;;;8.65;100.00;99605.56;6188436;27;96338;-58
2024/02/02 05:29:55;;;;;;;;;7.00;7.00;;;;;8.42;100.00;99578.06;6268633;27;96967;-57
2024/02/02 05:32:58;;;;;;;;;7.00;7.00;;;;;8.53;100.00;99600.91;6252653;27;97063;-54
2024/02/02 05:36:02;;;;;;;;;6.60;6.00;;;;;8.53;100.00;99612.47;6183011;28;96684;-55
2024/02/02 05:39:06;;;;;;;;;8.00;6.20;;;;;8.39;100.00;99581.13;6183265;28;96449;-55
2024/02/02 05:42:13;;;;;;;;;6.00;6.00;;;;;8.53;100.00;99608.97;6183321;27;96540;-55
2024/02/02 05:45:16;;;;;;;;;7.00;7.00;;;;;8.63;100.00;99617.53;6211204;27;96291;-54
2024/02/02 05:48:19;;;;;;;;;7.60;7.60;;;;;8.67;100.00;99619.66;6187303;27;96279;-54
2024/02/02 05:51:23;;;;;;;;;8.00;6.00;;;;;8.74;100.00;99618.91;6245887;27;96398;-54
2024/02/02 05:54:26;;;;;;;;;7.00;6.00;;;;;8.81;100.00;99620.63;6271619;27;96829;-55
2024/02/02 05:57:31;;;;;;;;;10.00;8.00;;;;;8.84;100.00;99619.41;6238055;27;96379;-55
2024/02/02 06:00:34;;;;;;;;;8.25;6.00;;;;;8.85;100.00;99618.34;6177090;27;96945;-55
2024/02/02 06:03:38;;;;;;;;;8.00;7.50;;;;;8.89;100.00;99625.88;6184365;27;96272;-54
2024/02/02 06:06:41;;;;;;;;;7.00;7.00;;;;;8.92;100.00;99630.03;6184261;28;96910;-54
2024/02/02 06:09:44;;;;;;;;;9.80;5.80;;;;;8.93;100.00;99631.69;6203305;27;96451;-55
2024/02/02 06:12:49;;;;;;;;;7.60;7.00;;;;;8.79;100.00;99627.22;6263384;27;96498;-55
2024/02/02 06:15:52;;;;;;;;;9.40;9.00;;;;;8.62;100.00;99607.81;6232520;27;96239;-55
2024/02/02 06:18:55;;;;;;;;;8.20;8.00;;;;;8.60;100.00;99615.25;6183849;28;98132;-55
2024/02/02 06:22:00;;;;;;;;;9.00;8.00;;;;;8.66;100.00;99631.44;6183492;27;96725;-55
2024/02/02 06:25:03;;;;;;;;;11.00;8.00;;;;;8.62;100.00;99640.91;6184244;27;96408;-55
2024/02/02 06:28:09;;;;;;;;;8.60;8.00;;;;;8.67;100.00;99629.56;6177142;27;97122;-55
2024/02/02 06:31:13;;;;;;;;;10.00;9.00;;;;;8.73;100.00;99646.81;6184526;28;96264;-55
2024/02/02 06:34:17;;;;;;;;;9.00;8.00;;;;;8.78;100.00;99642.50;6242084;27;96921;-55
2024/02/02 06:37:20;;;;;;;;;10.60;8.80;;;;;8.75;100.00;99640.19;6172816;27;96304;-55
2024/02/02 06:40:24;;;;;;;;;10.20;8.00;;;;;8.68;100.00;99644.69;6182328;28;97027;-55
2024/02/02 06:43:30;;;;;;;;;11.75;10.75;;;;;8.50;100.00;99620.09;6181132;28;96627;-57
2024/02/02 06:46:33;;;;;;;;;9.25;8.25;;;;;8.64;100.00;99644.25;6181318;28;96558;-58
2024/02/02 06:49:36;;;;;;;;;7.80;6.80;;;;;8.51;100.00;99645.94;6182947;28;96312;-58
2024/02/02 06:52:39;;;;;;;;;8.40;6.40;;;;;8.55;100.00;99644.56;6185647;28;96426;-55
2024/02/02 06:55:43;;;;;;;;;8.00;8.00;;;;;8.16;100.00;99580.44;6186344;28;96491;-55
2024/02/02 06:58:49;;;;;;;;;7.00;6.00;;;;;8.58;100.00;99650.38;6185352;28;96353;-55
2024/02/02 07:01:53;;;;;;;;;8.80;6.80;;;;;8.66;100.00;99652.09;6185360;27;96311;-55
2024/02/02 07:04:58;;;;;;;;;9.00;8.00;;;;;8.58;100.00;99653.06;6185905;28;96221;-55
2024/02/02 07:08:01;;;;;;;;;8.40;7.00;;;;;8.49;100.00;99659.59;6185743;28;96382;-55
2024/02/02 07:11:23;;;;;;;;;9.50;8.00;;;;;8.53;100.00;99673.47;6185569;28;96454;-55
2024/02/02 07:14:47;;;;;;;;;9.00;8.60;;;;;8.59;100.00;99675.41;6187731;28;96516;-55
2024/02/02 07:17:51;;;;;;;;;10.25;9.25;;;;;8.49;100.00;99678.38;6187682;28;96278;-54
2024/02/02 07:21:04;;;;;;;;;8.25;8.00;;;;;8.57;100.00;99678.28;6254623;27;96207;-54
2024/02/02 07:24:07;;;;;;;;;9.00;9.00;;;;;8.63;100.00;99680.22;6242548;27;98350;-54
2024/02/02 07:27:34;;;;;;;;;8.20;7.00;;;;;8.63;100.00;99665.94;6163506;28;96364;-56
2024/02/02 07:30:53;;;;;;;;;9.00;8.00;;;;;8.66;100.00;99668.22;6196332;27;96410;-55
2024/02/02 07:33:56;;;;;;;;;7.00;6.80;;;;;8.80;100.00;99677.25;6211875;28;96442;-54
2024/02/02 07:37:02;;;;;;;;;8.60;8.40;;;;;8.97;100.00;99682.22;6211545;28;96394;-57
2024/02/02 07:40:42;;;;;;;;;8.00;7.50;;;;;9.11;100.00;99670.56;6212427;28;96616;-56
2024/02/02 07:43:47;;;;;;;;;9.00;7.00;;;;;9.17;100.00;99671.63;6212275;28;96203;-57
2024/02/02 07:46:52;;;;;;;;;7.40;7.40;;;;;9.23;100.00;99672.72;6212060;28;96249;-56
2024/02/02 07:49:55;;;;;;;;;11.00;8.00;;;;;9.19;100.00;99677.63;6212342;28;96445;-54
2024/02/02 07:52:58;;;;;;;;;9.60;8.00;;;;;9.19;100.00;99672.25;6212025;28;96505;-56
2024/02/02 07:56:01;;;;;;;;;9.00;8.00;;;;;9.17;100.00;99681.56;6211800;28;96249;-56
2024/02/02 07:59:05;;;;;;;;;11.00;9.00;;;;;9.19;100.00;99677.63;6211714;28;97500;-56
2024/02/02 08:02:09;;;;;;;;;10.40;8.60;;;;;9.54;100.00;99687.47;6210993;28;96303;-55
2024/02/02 08:05:13;;;;;;;;;9.20;7.80;;;;;11.57;100.00;99680.34;6211948;28;97247;-56
2024/02/02 08:08:16;;;;;;;;;13.60;11.00;;;;;14.55;100.00;99684.50;6211429;28;96303;-54
2024/02/02 08:11:24;;;;;;;;;9.00;9.00;;;;;17.35;100.00;99691.56;6211231;28;96343;-54
2024/02/02 08:14:27;;;;;;;;;11.00;9.60;;;;;20.11;85.22;99699.88;6211724;28;96448;-55
2024/02/02 08:17:31;;;;;;;;;10.00;10.00;;;;;22.69;71.39;99699.44;6211137;28;96819;-55
2024/02/02 08:20:35;;;;;;;;;11.40;11.00;;;;;24.15;62.93;99695.69;6208624;27;96892;-55
2024/02/02 08:23:39;;;;;;;;;10.00;9.40;;;;;23.47;60.29;99702.34;6187726;27;96933;-56
2024/02/02 08:26:42;;;;;;;;;11.00;9.40;;;;;22.02;63.30;99695.22;6190034;28;96277;-55
2024/02/02 08:29:45;;;;;;;;;11.40;10.00;;;;;21.04;65.16;99709.09;6185991;28;96315;-55
2024/02/02 08:32:51;;;;;;;;;12.40;10.60;;;;;19.85;68.86;99703.53;6185344;28;96262;-55
2024/02/02 08:35:54;;;;;;;;;8.60;8.20;;;;;18.89;72.29;99705.31;6185718;28;96241;-54
2024/02/02 08:38:58;;;;;;;;;9.60;8.00;;;;;18.29;76.06;99721.72;6186230;28;96308;-54
2024/02/02 08:42:01;;;;;;;;;11.00;11.00;;;;;18.57;75.35;99714.22;6185952;28;96897;-55
2024/02/02 08:45:24;;;;;;;;;14.00;13.00;;;;;18.92;74.35;99723.91;6186101;28;96892;-54
2024/02/02 08:48:36;;;;;;;;;11.20;10.00;;;;;19.27;71.86;99716.13;6185886;28;96231;-55
2024/02/02 08:51:49;;;;;;;;;11.60;10.20;;;;;20.12;69.66;99725.34;6185979;28;96623;-55
2024/02/02 08:54:53;;;;;;;;;11.00;9.60;;;;;20.02;68.13;99717.06;6272104;27;96242;-55
2024/02/02 08:58:08;;;;;;;;;11.00;9.20;;;;;19.14;70.87;99729.38;6185639;28;96477;-55
2024/02/02 09:01:37;;;;;;;;;8.80;7.80;;;;;18.01;75.33;99730.88;6185737;28;96241;-55
2024/02/02 09:05:00;;;;;;;;;10.00;9.50;;;;;16.30;80.78;99702.81;6184883;28;96886;-56
2024/02/02 09:08:22;;;;;;;;;10.00;9.20;;;;;15.75;86.78;99712.41;6188753;27;97702;-57
2024/02/02 09:11:25;;;;;;;;;10.00;9.00;;;;;15.08;89.89;99717.19;6186286;28;96966;-56
2024/02/02 09:14:28;;;;;;;;;13.00;12.00;;;;;14.57;93.65;99714.94;6203890;28;96385;-56
2024/02/02 09:17:33;;;;;;;;;13.60;12.40;;;;;14.04;97.01;99714.66;6203931;28;96317;-57
2024/02/02 09:20:44;;;;;;;;;14.00;13.00;;;;;13.54;100.00;99720.13;6203355;28;96297;-56
2024/02/02 09:23:50;;;;;;;;;11.00;9.80;;;;;12.99;100.00;99719.03;6202404;28;96301;-57
2024/02/02 09:26:55;;;;;;;;;14.40;11.40;;;;;12.58;100.00;99719.41;6203053;28;96779;-57
2024/02/02 09:29:59;;;;;;;;;11.40;9.80;;;;;12.37;100.00;99706.19;6203464;28;96371;-57
2024/02/02 09:33:03;;;;;;;;;12.00;10.00;;;;;12.38;100.00;99718.66;6203037;28;96410;-57
2024/02/02 09:36:09;;;;;;;;;10.00;9.00;;;;;12.30;100.00;99725.16;6203699;28;96591;-56
2024/02/02 09:39:47;;;;;;;;;8.00;8.00;;;;;12.15;100.00;99716.44;6271598;27;96316;-56
2024/02/02 09:43:08;;;;;;;;;10.00;9.00;;;;;12.27;100.00;99714.72;6201620;28;96348;-57
2024/02/02 09:46:20;;;;;;;;;12.00;11.00;;;;;12.35;100.00;99706.41;6201900;28;96274;-56
2024/02/02 09:49:34;;;;;;;;;11.00;9.00;;;;;12.64;100.00;99715.03;6265213;27;96732;-57
2024/02/02 09:52:54;;;;;;;;;13.00;11.00;;;;;13.00;100.00;99715.25;6199009;28;96100;-57
2024/02/02 09:56:07;;;;;;;;;12.00;11.00;;;;;13.31;100.00;99709.03;6264008;27;96976;-56
2024/02/02 09:59:24;;;;;;;;;9.50;9.00;;;;;13.32;100.00;99710.72;6203061;28;96260;-56
2024/02/02 10:02:44;;;;;;;;;12.50;9.00;;;;;13.14;100.00;99708.75;6201881;28;96338;-57
2024/02/02 10:05:59;;;;;;;;;10.00;9.00;;;;;12.72;100.00;99707.50;6202092;28;96350;-56
2024/02/02 10:09:29;;;;;;;;;11.00;9.00;;;;;12.60;100.00;99709.22;6202070;28;96273;-57
2024/02/02 10:12:45;;;;;;;;;12.60;12.00;;;;;12.40;100.00;99720.13;6201826;28;96403;-57
2024/02/02 10:16:10;;;;;;;;;8.00;8.00;;;;;12.23;100.00;99705.41;6203257;27;96699;-56
2024/02/02 10:19:37;;;;;;;;;10.50;9.50;;;;;11.94;100.00;99709.41;6204021;28;96335;-57
2024/02/02 10:23:02;;;;;;;;;9.00;8.00;;;;;12.08;100.00;99702.94;6194096;28;96243;-59
2024/02/02 10:26:29;;;;;;;;;9.00;8.00;;;;;13.41;100.00;99693.97;6194247;27;97528;-60
2024/02/02 10:29:44;;;;;;;;;8.75;8.00;;;;;14.38;96.56;99695.13;6280211;27;97745;-60
2024/02/02 10:33:02;;;;;;;;;9.00;8.00;;;;;14.73;93.40;99688.00;6212384;28;96402;-60
2024/02/02 10:36:24;;;;;;;;;8.40;8.40;;;;;14.53;89.43;99684.72;6207278;28;97389;-60
2024/02/02 10:39:45;;;;;;;;;9.40;8.00;;;;;14.60;89.28;99685.47;6198133;27;96494;-60
2024/02/02 10:43:26;;;;;;;;;9.00;7.00;;;;;14.88;89.35;99660.47;6189521;28;96376;-60
2024/02/02 10:46:36;;;;;;;;;7.60;7.00;;;;;16.50;80.98;99674.38;6189377;27;96347;-60
2024/02/02 10:49:52;;;;;;;;;11.00;9.40;;;;;18.72;74.16;99664.41;6254658;27;98924;-60
2024/02/02 10:53:04;;;;;;;;;9.00;7.00;;;;;20.13;65.66;99669.50;6186783;28;96392;-58
2024/02/02 10:56:22;;;;;;;;;10.40;8.40;;;;;21.44;60.80;99669.16;6186807;28;96580;-60
2024/02/02 10:59:38;;;;;;;;;10.40;8.40;;;;;23.50;53.13;99658.56;6187537;28;96309;-60
2024/02/02 11:02:55;;;;;;;;;8.00;7.40;;;;;24.19;51.16;99667.59;6186588;28;96255;-58
2024/02/02 11:06:09;;;;;;;;;10.00;8.50;;;;;24.70;49.49;99649.31;6187213;28;96350;-58
2024/02/02 11:09:20;;;;;;;;;8.60;7.60;;;;;24.20;47.78;99655.44;6187448;27;96281;-58
2024/02/02 11:12:38;;;;;;;;;11.00;9.00;;;;;24.04;48.52;99658.31;6187501;28;96900;-58
2024/02/02 11:15:55;;;;;;;;;9.60;7.60;;;;;25.23;46.73;99652.72;6187331;28;96448;-58
2024/02/02 11:19:13;;;;;;;;;9.00;8.00;;;;;24.02;47.14;99629.44;6187161;28;96358;-58
2024/02/02 11:22:26;;;;;;;;;10.40;8.40;;;;;22.54;50.29;99628.84;6270538;27;98349;-58
2024/02/02 11:25:35;;;;;;;;;10.00;9.00;;;;;21.24;53.02;99625.25;6186942;28;96368;-59
2024/02/02 11:28:52;;;;;;;;;11.20;7.20;;;;;20.10;54.79;99634.44;6186715;28;96373;-59
2024/02/02 11:32:07;;;;;;;;;11.00;8.00;;;;;19.53;57.37;99618.75;6187915;28;96795;-55
2024/02/02 11:35:20;;;;;;;;;9.50;8.50;;;;;18.56;58.39;99610.72;6186894;28;96249;-55
2024/02/02 11:38:35;;;;;;;;;8.00;7.75;;;;;18.82;57.12;99604.41;6187366;28;96317;-55
2024/02/02 11:41:40;;;;;;;;;8.40;8.00;;;;;18.34;58.18;99602.50;6187406;28;96495;-55
2024/02/02 11:44:47;;;;;;;;;10.00;8.00;;;;;17.79;60.25;99594.41;6187604;28;96800;-55
2024/02/02 11:47:58;;;;;;;;;7.80;7.00;;;;;17.19;63.44;99592.38;6187220;28;96273;-55
2024/02/02 11:51:01;;;;;;;;;10.40;8.40;;;;;18.68;61.96;99594.16;6187341;28;96374;-55
2024/02/02 11:54:16;;;;;;;;;9.00;8.00;;;;;21.08;55.22;99595.06;6186666;28;96254;-55
2024/02/02 11:57:22;;;;;;;;;9.40;9.00;;;;;23.35;48.69;99598.13;6186886;28;96554;-55
2024/02/02 12:00:40;;;;;;;;;9.00;8.00;;;;;25.16;43.28;99599.03;6186830;28;96412;-55
2024/02/02 12:04:00;;;;;;;;;10.00;8.60;;;;;26.26;39.11;99568.59;6185922;28;96919;-55
2024/02/02 12:07:16;;;;;;;;;9.00;8.00;;;;;27.02;37.41;99589.06;6186710;28;96826;-55
2024/02/02 12:10:23;;;;;;;;;11.00;10.00;;;;;27.85;36.96;99578.41;6186675;28;96363;-55
2024/02/02 12:13:30;;;;;;;;;11.00;9.00;;;;;27.87;35.57;99582.47;6186120;28;96564;-55
2024/02/02 12:16:33;;;;;;;;;10.00;9.00;;;;;26.97;36.61;99580.88;6186902;28;96351;-55
2024/02/02 12:19:38;;;;;;;;;8.00;7.00;;;;;25.18;38.02;99571.94;6186493;28;96292;-55
2024/02/02 12:22:42;;;;;;;;;9.00;7.00;;;;;23.07;40.46;99568.63;6186564;28;96467;-55
2024/02/02 12:25:45;;;;;;;;;8.00;6.80;;;;;21.48;44.09;99558.59;6270829;27;96241;-55
2024/02/02 12:28:48;;;;;;;;;6.00;6.00;;;;;20.27;47.12;99559.25;6186104;28;96402;-55
2024/02/02 12:31:52;;;;;;;;;10.00;7.00;;;;;20.08;48.70;99552.59;6186398;28;96350;-55
2024/02/02 12:34:57;;;;;;;;;7.00;6.00;;;;;20.43;49.25;99543.69;6186138;28;96336;-54
2024/02/02 12:38:01;;;;;;;;;6.00;6.00;;;;;22.03;47.20;99537.63;6186345;28;96317;-54
2024/02/02 12:41:08;;;;;;;;;7.00;6.00;;;;;22.38;43.45;99542.13;6187515;27;96520;-55
2024/02/02 12:44:12;;;;;;;;;7.00;7.00;;;;;21.36;44.13;99546.25;6198179;28;96702;-52
2024/02/02 12:47:22;;;;;;;;;7.00;6.40;;;;;19.75;47.74;99536.53;6199873;27;96272;-52
2024/02/02 12:50:27;;;;;;;;;8.50;7.50;;;;;18.39;52.78;99537.03;6197905;27;96621;-53
2024/02/02 12:53:30;;;;;;;;;8.00;7.00;;;;;17.38;56.51;99530.25;6200050;28;96316;-53
2024/02/02 12:56:33;;;;;;;;;8.60;7.00;;;;;17.12;58.84;99523.59;6199012;27;96300;-53
2024/02/02 12:59:36;;;;;;;;;5.00;5.00;;;;;17.33;60.71;99522.84;6199144;27;96349;-53
2024/02/02 13:02:40;;;;;;;;;7.60;6.60;;;;;17.43;60.19;99519.44;6197800;27;96624;-53
2024/02/02 13:05:44;;;;;;;;;8.25;6.25;;;;;17.24;61.02;99521.63;6199700;28;96380;-53
2024/02/02 13:08:48;;;;;;;;;9.00;7.00;;;;;16.91;62.30;99523.53;6219946;27;96313;-52
2024/02/02 13:11:53;;;;;;;;;7.00;7.00;;;;;16.64;62.90;99515.16;6223289;27;96485;-53
2024/02/02 13:15:07;;;;;;;;;7.00;6.00;;;;;16.40;64.12;99509.81;6207855;27;96294;-53
2024/02/02 13:18:13;;;;;;;;;8.50;7.00;;;;;16.13;64.74;99522.34;6210757;27;96555;-53
2024/02/02 13:21:26;;;;;;;;;7.40;6.40;;;;;15.98;65.66;99500.28;6265977;27;96636;-53
2024/02/02 13:24:31;;;;;;;;;9.60;8.20;;;;;15.94;66.73;99501.84;6272148;27;97226;-54
2024/02/02 13:27:34;;;;;;;;;7.00;7.00;;;;;16.07;67.09;99504.28;6222407;27;96940;-53
2024/02/02 13:30:37;;;;;;;;;9.50;8.00;;;;;15.97;65.65;99495.94;6202781;27;97263;-54
2024/02/02 13:33:41;;;;;;;;;6.80;6.20;;;;;16.04;66.48;99491.97;6204378;27;96438;-53
2024/02/02 13:36:50;;;;;;;;;8.00;7.00;;;;;15.97;65.78;99494.03;6204706;27;96861;-53
2024/02/02 13:39:55;;;;;;;;;9.00;8.00;;;;;15.84;67.14;99488.03;6200587;27;96771;-53
2024/02/02 13:42:59;;;;;;;;;10.40;7.60;;;;;15.56;67.90;99491.53;6272731;27;96300;-54
2024/02/02 13:46:05;;;;;;;;;8.00;7.00;;;;;15.28;69.63;99483.28;6267485;27;96362;-53
2024/02/02 13:49:08;;;;;;;;;9.00;8.00;;;;;14.88;71.82;99475.00;6204705;28;96440;-53
2024/02/02 13:52:13;;;;;;;;;11.80;10.00;;;;;14.52;74.44;99476.84;6231640;27;97000;-55
2024/02/02 13:55:18;;;;;;;;;9.00;9.00;;;;;14.06;77.10;99471.25;6217050;27;96349;-55
2024/02/02 13:58:23;;;;;;;;;9.60;8.60;;;;;13.65;79.51;99451.16;6204518;28;96183;-55
2024/02/02 14:01:29;;;;;;;;;13.00;11.60;;;;;13.24;82.86;99453.75;6217217;28;96255;-55
2024/02/02 14:04:32;;;;;;;;;9.00;8.00;;;;;13.12;84.10;99444.69;6204978;27;96454;-55
2024/02/02 14:07:36;;;;;;;;;11.00;9.00;;;;;12.91;86.88;99446.75;6205945;27;96518;-55
2024/02/02 14:10:44;;;;;;;;;11.00;11.00;;;;;12.56;89.16;99454.53;6214617;27;96327;-55
2024/02/02 14:13:47;;;;;;;;;9.00;8.00;;;;;12.38;89.95;99443.66;6204696;27;96544;-55
2024/02/02 14:16:50;;;;;;;;;10.25;9.00;;;;;12.20;91.83;99440.06;6286554;27;96273;-55
2024/02/02 14:20:01;;;;;;;;;10.00;9.00;;;;;12.11;92.59;99445.75;6206895;27;96896;-55
2024/02/02 14:23:11;;;;;;;;;10.60;10.00;;;;;12.13;93.14;99446.34;6212554;27;96418;-54
2024/02/02 14:26:14;;;;;;;;;12.00;11.60;;;;;11.98;94.90;99445.81;6275451;27;96510;-55
2024/02/02 14:29:18;;;;;;;;;12.00;11.00;;;;;11.90;95.22;99445.25;6226888;27;96161;-55
2024/02/02 14:32:21;;;;;;;;;12.20;10.40;;;;;11.99;95.09;99446.66;6267461;27;98481;-55